createdAt,value
2022-10-16T00:01:48.427Z,13.66
2022-10-16T00:04:16.695Z,13.80
2022-10-16T00:07:09.858Z,13.63
2022-10-16T00:09:38.199Z,13.71
2022-10-16T00:12:07.682Z,13.70
2022-10-16T00:14:35.941Z,13.70
2022-10-16T00:17:05.574Z,13.77
2022-10-16T00:19:33.802Z,13.73
2022-10-16T00:22:02.069Z,13.71
2022-10-16T00:24:31.022Z,13.69
2022-10-16T00:26:59.274Z,13.72
2022-10-16T00:29:27.638Z,13.75
2022-10-16T00:31:56.080Z,13.74
2022-10-16T00:34:26.524Z,13.75
2022-10-16T00:36:55.112Z,13.75
2022-10-16T00:39:23.471Z,13.78
2022-10-16T00:41:51.803Z,13.81
2022-10-16T00:44:53.360Z,13.77
2022-10-16T00:47:27.303Z,13.76
2022-10-16T00:50:06.462Z,13.71
2022-10-16T00:52:34.983Z,13.67
2022-10-16T00:55:05.393Z,13.38
2022-10-16T00:57:33.672Z,13.78
2022-10-16T01:00:02.651Z,13.78
2022-10-16T01:02:30.926Z,13.79
2022-10-16T01:05:00.967Z,13.78
2022-10-16T01:07:45.732Z,13.82
2022-10-16T01:10:29.228Z,13.76
2022-10-16T01:13:03.754Z,13.81
2022-10-16T01:18:17.954Z,13.84
2022-10-16T01:20:53.602Z,13.86
2022-10-16T01:23:37.300Z,13.80
2022-10-16T01:26:29.650Z,13.90
2022-10-16T01:29:06.034Z,13.87
2022-10-16T01:31:39.321Z,13.86
2022-10-16T01:34:14.472Z,13.87
2022-10-16T01:36:53.094Z,13.88
2022-10-16T01:39:51.251Z,13.89
2022-10-16T01:42:23.037Z,13.93
2022-10-16T01:44:55.250Z,13.92
2022-10-16T01:47:27.947Z,13.83
2022-10-16T01:49:58.202Z,13.24
2022-10-16T01:52:30.082Z,13.89
2022-10-16T01:55:00.388Z,13.99
2022-10-16T01:57:30.267Z,13.93
2022-10-16T02:00:06.601Z,13.87
2022-10-16T02:02:43.193Z,13.87
2022-10-16T02:05:41.847Z,13.84
2022-10-16T02:08:10.369Z,13.95
2022-10-16T02:10:40.254Z,13.86
2022-10-16T02:13:12.629Z,13.60
2022-10-16T02:15:42.458Z,13.78
2022-10-16T02:18:12.403Z,13.82
2022-10-16T02:20:52.582Z,13.78
2022-10-16T02:23:32.359Z,13.78
2022-10-16T02:26:03.154Z,13.79
2022-10-16T02:28:38.670Z,13.81
2022-10-16T02:31:13.972Z,13.71
2022-10-16T02:33:44.981Z,13.80
2022-10-16T02:36:13.927Z,13.79
2022-10-16T02:38:42.923Z,13.70
2022-10-16T02:41:12.093Z,13.63
2022-10-16T02:43:41.059Z,13.57
2022-10-16T02:46:10.784Z,13.64
2022-10-16T02:48:40.251Z,13.58
2022-10-16T02:51:08.810Z,13.61
2022-10-16T02:53:37.015Z,13.72
2022-10-16T02:56:12.689Z,13.63
2022-10-16T02:58:41.002Z,13.67
2022-10-16T03:01:10.676Z,13.57
2022-10-16T03:03:38.961Z,13.65
2022-10-16T03:06:07.588Z,13.66
2022-10-16T03:08:35.872Z,13.54
2022-10-16T03:11:04.057Z,13.59
2022-10-16T03:13:32.301Z,13.58
2022-10-16T03:16:00.510Z,13.59
2022-10-16T03:18:30.243Z,13.52
2022-10-16T03:20:58.495Z,13.51
2022-10-16T03:23:26.773Z,13.50
2022-10-16T03:25:55.079Z,13.57
2022-10-16T03:28:23.405Z,13.46
2022-10-16T03:30:51.640Z,13.53
2022-10-16T03:33:19.859Z,13.52
2022-10-16T03:35:55.439Z,13.46
2022-10-16T03:38:24.105Z,13.46
2022-10-16T03:40:54.224Z,13.37
2022-10-16T03:43:23.590Z,13.43
2022-10-16T03:45:53.318Z,13.40
2022-10-16T03:48:21.572Z,13.39
2022-10-16T03:50:49.768Z,13.08
2022-10-16T03:53:19.810Z,13.41
2022-10-16T03:55:48.072Z,13.48
2022-10-16T03:58:16.354Z,12.96
2022-10-16T04:00:45.372Z,13.40
2022-10-16T04:03:14.343Z,13.46
2022-10-16T04:05:42.777Z,13.41
2022-10-16T04:08:11.097Z,13.39
2022-10-16T04:10:41.113Z,13.42
2022-10-16T04:13:09.410Z,13.39
2022-10-16T04:15:37.667Z,13.43
2022-10-16T04:18:06.720Z,13.45
2022-10-16T04:20:35.588Z,13.43
2022-10-16T04:23:03.803Z,13.47
2022-10-16T04:25:32.866Z,13.47
2022-10-16T04:28:02.442Z,13.41
2022-10-16T04:30:30.697Z,13.37
2022-10-16T04:32:59.030Z,13.31
2022-10-16T04:35:27.338Z,13.22
2022-10-16T04:37:55.542Z,13.09
2022-10-16T04:40:23.765Z,13.13
2022-10-16T04:42:52.055Z,13.06
2022-10-16T04:45:21.625Z,13.10
2022-10-16T04:47:49.807Z,13.06
2022-10-16T04:50:18.258Z,13.10
2022-10-16T04:53:03.183Z,12.99
2022-10-16T04:55:31.495Z,13.04
2022-10-16T04:58:00.090Z,12.90
2022-10-16T05:00:29.938Z,12.89
2022-10-16T05:02:59.314Z,12.85
2022-10-16T05:05:27.707Z,12.87
2022-10-16T05:07:56.110Z,12.84
2022-10-16T05:13:42.526Z,12.87
2022-10-16T05:16:37.314Z,12.86
2022-10-16T05:19:30.631Z,12.80
2022-10-16T05:21:59.213Z,12.71
2022-10-16T05:24:28.290Z,12.73
2022-10-16T05:26:57.190Z,13.27
2022-10-16T05:29:25.684Z,12.68
2022-10-16T05:31:55.871Z,12.65
2022-10-16T05:34:24.165Z,12.66
2022-10-16T05:36:52.489Z,12.65
2022-10-16T05:39:22.446Z,12.64
2022-10-16T05:41:53.426Z,12.57
2022-10-16T05:44:21.720Z,12.69
2022-10-16T05:46:50.045Z,12.62
2022-10-16T05:49:19.678Z,12.70
2022-10-16T05:51:47.873Z,12.71
2022-10-16T05:54:16.530Z,12.63
2022-10-16T05:56:45.221Z,12.80
2022-10-16T05:59:13.616Z,12.55
2022-10-16T06:01:41.842Z,12.67
2022-10-16T06:06:47.406Z,12.64
2022-10-16T06:09:16.212Z,12.70
2022-10-16T06:11:44.503Z,12.69
2022-10-16T06:14:13.076Z,12.69
2022-10-16T06:16:41.329Z,12.71
2022-10-16T06:19:10.354Z,12.79
2022-10-16T06:21:38.753Z,12.69
2022-10-16T06:24:08.398Z,12.77
2022-10-16T06:26:36.588Z,12.90
2022-10-16T06:29:05.066Z,12.74
2022-10-16T06:31:34.510Z,12.74
2022-10-16T06:34:05.667Z,12.95
2022-10-16T06:36:33.982Z,12.91
2022-10-16T06:39:02.274Z,13.01
2022-10-16T06:41:31.930Z,12.96
2022-10-16T06:44:08.151Z,12.90
2022-10-16T06:46:36.613Z,12.95
2022-10-16T06:49:05.449Z,12.94
2022-10-16T06:51:37.918Z,13.07
2022-10-16T06:54:08.860Z,13.08
2022-10-16T06:56:38.626Z,13.18
2022-10-16T06:59:06.891Z,13.13
2022-10-16T07:01:35.402Z,13.24
2022-10-16T07:04:04.145Z,13.13
2022-10-16T07:06:35.322Z,13.18
2022-10-16T07:09:06.998Z,13.90
2022-10-16T07:11:35.735Z,13.28
2022-10-16T07:14:06.407Z,13.33
2022-10-16T07:16:35.241Z,13.41
2022-10-16T07:19:04.999Z,13.44
2022-10-16T07:21:37.011Z,13.51
2022-10-16T07:24:08.065Z,13.60
2022-10-16T07:26:40.016Z,13.67
2022-10-16T07:29:18.933Z,13.75
2022-10-16T07:31:47.608Z,13.76
2022-10-16T07:34:19.254Z,13.87
2022-10-16T07:36:50.570Z,13.94
2022-10-16T07:39:19.235Z,14.01
2022-10-16T07:41:47.538Z,14.04
2022-10-16T07:44:18.548Z,14.10
2022-10-16T07:46:48.011Z,14.00
2022-10-16T07:49:16.311Z,14.17
2022-10-16T07:51:44.530Z,14.25
2022-10-16T07:54:13.103Z,14.32
2022-10-16T07:56:43.806Z,14.24
2022-10-16T07:59:12.879Z,14.39
2022-10-16T08:01:43.143Z,14.41
2022-10-16T08:04:12.493Z,13.52
2022-10-16T08:06:42.573Z,14.65
2022-10-16T08:09:11.759Z,14.58
2022-10-16T08:11:39.925Z,14.59
2022-10-16T08:14:08.116Z,14.55
2022-10-16T08:16:36.290Z,14.32
2022-10-16T08:19:05.867Z,14.85
2022-10-16T08:21:33.982Z,14.80
2022-10-16T08:24:02.272Z,14.88
2022-10-16T08:26:30.557Z,14.98
2022-10-16T08:28:58.755Z,14.88
2022-10-16T08:31:28.058Z,14.87
2022-10-16T08:33:56.247Z,14.92
2022-10-16T08:36:25.796Z,14.91
2022-10-16T08:38:55.558Z,14.89
2022-10-16T08:42:03.820Z,15.05
2022-10-16T08:45:10.628Z,14.97
2022-10-16T08:47:51.205Z,14.89
2022-10-16T08:50:28.042Z,14.99
2022-10-16T08:52:59.277Z,14.96
2022-10-16T08:55:43.666Z,15.00
2022-10-16T08:58:16.068Z,14.98
2022-10-16T09:00:48.956Z,15.21
2022-10-16T09:03:38.690Z,15.29
2022-10-16T09:06:40.126Z,15.34
2022-10-16T09:09:34.953Z,15.46
2022-10-16T09:12:11.415Z,15.58
2022-10-16T09:15:03.577Z,15.52
2022-10-16T09:17:47.699Z,15.76
2022-10-16T09:20:32.671Z,15.74
2022-10-16T09:23:16.766Z,15.18
2022-10-16T09:25:50.324Z,16.14
2022-10-16T09:28:20.591Z,16.21
2022-10-16T09:30:50.888Z,16.27
2022-10-16T09:33:23.520Z,16.53
2022-10-16T09:35:54.772Z,16.53
2022-10-16T09:38:29.131Z,16.66
2022-10-16T09:41:03.676Z,16.72
2022-10-16T09:43:39.100Z,16.88
2022-10-16T09:46:09.625Z,17.01
2022-10-16T09:48:40.334Z,16.86
2022-10-16T09:51:20.149Z,17.00
2022-10-16T09:53:50.100Z,16.91
2022-10-16T09:56:27.583Z,16.97
2022-10-16T09:58:57.878Z,17.12
2022-10-16T10:01:32.897Z,17.19
2022-10-16T10:04:06.561Z,17.04
2022-10-16T10:06:38.996Z,16.99
2022-10-16T10:09:18.661Z,17.08
2022-10-16T10:11:53.138Z,17.15
2022-10-16T10:14:34.408Z,17.50
2022-10-16T10:17:16.660Z,17.54
2022-10-16T10:19:50.995Z,17.59
2022-10-16T10:22:33.001Z,17.88
2022-10-16T10:25:22.018Z,18.21
2022-10-16T10:28:11.597Z,18.29
2022-10-16T10:30:52.389Z,18.47
2022-10-16T10:33:30.431Z,18.56
2022-10-16T10:36:13.089Z,18.67
2022-10-16T10:38:49.845Z,18.64
2022-10-16T10:42:10.447Z,18.76
2022-10-16T10:45:14.211Z,18.62
2022-10-16T10:48:11.178Z,18.61
2022-10-16T10:50:45.527Z,18.34
2022-10-16T10:53:27.285Z,18.44
2022-10-16T10:56:10.185Z,18.42
2022-10-16T10:59:09.128Z,18.58
2022-10-16T11:01:49.883Z,18.42
2022-10-16T11:04:44.869Z,18.59
2022-10-16T11:07:19.644Z,18.74
2022-10-16T11:09:52.993Z,18.96
2022-10-16T11:12:24.516Z,18.83
2022-10-16T11:15:03.057Z,19.17
2022-10-16T11:17:40.602Z,19.15
2022-10-16T11:20:18.605Z,19.26
2022-10-16T11:22:52.128Z,19.22
2022-10-16T11:25:24.697Z,19.42
2022-10-16T11:27:57.452Z,19.58
2022-10-16T11:30:28.459Z,19.75
2022-10-16T11:33:21.442Z,19.69
2022-10-16T11:35:55.600Z,19.77
2022-10-16T11:38:31.855Z,19.69
2022-10-16T11:41:04.799Z,19.72
2022-10-16T11:43:40.398Z,19.73
2022-10-16T11:46:15.439Z,19.86
2022-10-16T11:48:52.691Z,19.88
2022-10-16T11:51:33.529Z,19.77
2022-10-16T11:54:09.406Z,18.85
2022-10-16T11:56:41.356Z,20.01
2022-10-16T11:59:21.406Z,20.02
2022-10-16T12:01:54.439Z,20.09
2022-10-16T12:04:34.950Z,20.22
2022-10-16T12:07:08.239Z,20.17
2022-10-16T12:09:41.262Z,20.31
2022-10-16T12:12:31.480Z,20.39
2022-10-16T12:15:16.306Z,20.61
2022-10-16T12:17:48.382Z,20.82
2022-10-16T12:20:31.293Z,21.58
2022-10-16T12:23:03.381Z,21.06
2022-10-16T12:25:34.846Z,21.40
2022-10-16T12:28:06.273Z,21.66
2022-10-16T12:30:36.751Z,21.79
2022-10-16T12:33:08.274Z,21.92
2022-10-16T12:35:46.538Z,21.52
2022-10-16T12:38:21.354Z,21.57
2022-10-16T12:40:58.855Z,21.92
2022-10-16T12:43:38.918Z,21.93
2022-10-16T12:46:25.865Z,22.24
2022-10-16T12:49:09.224Z,22.13
2022-10-16T12:51:39.560Z,22.17
2022-10-16T12:54:16.658Z,21.30
2022-10-16T12:57:04.191Z,22.02
2022-10-16T12:59:45.969Z,22.21
2022-10-16T13:02:48.839Z,22.31
2022-10-16T13:08:33.000Z,22.76
2022-10-16T13:11:09.772Z,22.80
2022-10-16T13:14:09.510Z,22.89
2022-10-16T13:16:52.654Z,23.02
2022-10-16T13:19:31.698Z,22.93
2022-10-16T13:22:07.902Z,22.76
2022-10-16T13:24:58.302Z,23.39
2022-10-16T13:27:39.031Z,22.78
2022-10-16T13:30:17.597Z,23.08
2022-10-16T13:32:49.399Z,22.84
2022-10-16T13:35:23.258Z,22.85
2022-10-16T13:37:52.179Z,23.40
2022-10-16T13:40:24.574Z,23.41
2022-10-16T13:42:53.404Z,23.59
2022-10-16T13:45:26.199Z,23.35
2022-10-16T13:48:05.387Z,23.45
2022-10-16T13:50:33.935Z,23.29
2022-10-16T13:53:09.320Z,22.65
2022-10-16T13:55:38.896Z,22.27
2022-10-16T13:58:09.504Z,22.20
2022-10-16T14:03:17.300Z,21.84
2022-10-16T14:05:56.822Z,21.89
2022-10-16T14:08:27.825Z,21.14
2022-10-16T14:11:00.221Z,21.24
2022-10-16T14:13:34.535Z,21.53
2022-10-16T14:16:09.472Z,21.48
2022-10-16T14:18:39.881Z,21.32
2022-10-16T14:21:13.985Z,21.30
2022-10-16T14:23:44.247Z,21.24
2022-10-16T14:26:19.922Z,21.10
2022-10-16T14:28:49.989Z,21.19
2022-10-16T14:31:40.663Z,21.08
2022-10-16T14:34:28.562Z,21.11
2022-10-16T14:36:57.633Z,21.27
2022-10-16T14:39:28.663Z,21.28
2022-10-16T14:42:00.412Z,21.13
2022-10-16T14:44:33.876Z,21.19
2022-10-16T14:47:11.831Z,21.24
2022-10-16T14:49:40.077Z,20.96
2022-10-16T14:52:13.546Z,20.98
2022-10-16T14:54:42.147Z,20.99
2022-10-16T14:57:21.094Z,20.88
2022-10-16T14:59:52.090Z,20.99
2022-10-16T15:02:29.431Z,20.80
2022-10-16T15:04:58.579Z,20.69
2022-10-16T15:07:27.515Z,20.57
2022-10-16T15:09:58.021Z,20.64
2022-10-16T15:12:27.601Z,20.52
2022-10-16T15:14:55.892Z,20.51
2022-10-16T15:17:24.402Z,20.54
2022-10-16T15:19:52.843Z,20.34
2022-10-16T15:22:24.187Z,20.33
2022-10-16T15:24:52.395Z,20.27
2022-10-16T15:27:20.596Z,20.21
2022-10-16T15:29:50.179Z,20.04
2022-10-16T15:32:18.431Z,20.00
2022-10-16T15:34:46.711Z,19.80
2022-10-16T15:37:14.987Z,19.88
2022-10-16T15:39:43.245Z,19.77
2022-10-16T15:42:12.058Z,19.77
2022-10-16T15:44:40.283Z,19.62
2022-10-16T15:47:11.082Z,18.83
2022-10-16T15:49:39.316Z,19.40
2022-10-16T15:52:07.576Z,19.44
2022-10-16T15:54:35.886Z,19.39
2022-10-16T15:57:04.151Z,19.39
2022-10-16T15:59:32.554Z,19.30
2022-10-16T16:02:00.834Z,19.38
2022-10-16T16:07:24.906Z,19.02
2022-10-16T16:09:53.226Z,18.96
2022-10-16T16:12:21.817Z,18.94
2022-10-16T16:14:50.176Z,18.88
2022-10-16T16:17:18.639Z,18.76
2022-10-16T16:19:48.609Z,18.82
2022-10-16T16:22:16.823Z,18.61
2022-10-16T16:24:45.027Z,18.50
2022-10-16T16:27:14.491Z,18.60
2022-10-16T16:29:42.714Z,18.35
2022-10-16T16:32:11.147Z,18.29
2022-10-16T16:34:39.413Z,18.23
2022-10-16T16:37:09.017Z,18.23
2022-10-16T16:39:37.219Z,18.06
2022-10-16T16:42:07.225Z,18.01
2022-10-16T16:44:37.104Z,18.03
2022-10-16T16:47:05.618Z,18.07
2022-10-16T16:49:34.374Z,17.93
2022-10-16T16:52:02.809Z,17.87
2022-10-16T16:54:37.322Z,17.91
2022-10-16T16:57:05.735Z,17.87
2022-10-16T16:59:34.626Z,17.83
2022-10-16T17:02:03.255Z,17.73
2022-10-16T17:04:31.535Z,17.70
2022-10-16T17:06:59.838Z,17.81
2022-10-16T17:09:28.182Z,17.72
2022-10-16T17:11:57.786Z,17.53
2022-10-16T17:14:26.128Z,17.78
2022-10-16T17:16:54.813Z,17.60
2022-10-16T17:19:23.491Z,17.48
2022-10-16T17:21:53.066Z,17.57
2022-10-16T17:24:21.840Z,17.50
2022-10-16T17:26:50.782Z,17.72
2022-10-16T17:29:20.877Z,17.69
2022-10-16T17:31:50.816Z,17.64
2022-10-16T17:34:19.593Z,17.66
2022-10-16T17:36:48.096Z,17.61
2022-10-16T17:39:19.072Z,17.62
2022-10-16T17:41:48.844Z,17.55
2022-10-16T17:44:20.791Z,17.55
2022-10-16T17:46:53.407Z,17.62
2022-10-16T17:49:22.854Z,17.25
2022-10-16T17:51:52.747Z,17.60
2022-10-16T17:54:25.677Z,17.62
2022-10-16T17:56:54.024Z,17.56
2022-10-16T17:59:23.105Z,17.30
2022-10-16T18:01:52.946Z,17.67
2022-10-16T18:04:29.154Z,17.62
2022-10-16T18:06:57.330Z,17.50
2022-10-16T18:09:25.506Z,17.67
2022-10-16T18:11:59.929Z,17.77
2022-10-16T18:14:29.969Z,17.19
2022-10-16T18:17:00.254Z,17.51
2022-10-16T18:19:28.999Z,17.44
2022-10-16T18:21:57.450Z,17.62
2022-10-16T18:24:27.022Z,17.46
2022-10-16T18:26:57.439Z,17.39
2022-10-16T18:29:28.137Z,17.30
2022-10-16T18:31:57.128Z,17.42
2022-10-16T18:34:27.936Z,17.22
2022-10-16T18:36:57.506Z,17.24
2022-10-16T18:39:25.761Z,17.23
2022-10-16T18:41:59.509Z,17.28
2022-10-16T18:44:28.342Z,16.99
2022-10-16T18:46:59.097Z,17.02
2022-10-16T18:49:29.648Z,17.01
2022-10-16T18:51:58.605Z,16.52
2022-10-16T18:54:26.925Z,16.84
2022-10-16T18:56:55.381Z,16.53
2022-10-16T18:59:23.893Z,16.64
2022-10-16T19:01:52.540Z,16.51
2022-10-16T19:04:22.447Z,16.34
2022-10-16T19:06:54.450Z,15.19
2022-10-16T19:09:25.599Z,16.13
2022-10-16T19:11:53.909Z,16.02
2022-10-16T19:14:22.175Z,15.97
2022-10-16T19:16:50.430Z,15.68
2022-10-16T19:19:19.888Z,15.40
2022-10-16T19:21:51.182Z,15.83
2022-10-16T19:24:21.297Z,15.63
2022-10-16T19:26:49.583Z,15.66
2022-10-16T19:29:17.867Z,15.69
2022-10-16T19:31:46.336Z,15.59
2022-10-16T19:34:14.664Z,15.50
2022-10-16T19:36:43.402Z,15.33
2022-10-16T19:39:15.882Z,15.37
2022-10-16T19:41:49.275Z,15.26
2022-10-16T19:44:18.567Z,15.27
2022-10-16T19:46:48.869Z,13.95
2022-10-16T19:49:21.690Z,15.11
2022-10-16T19:51:51.807Z,15.30
2022-10-16T19:54:20.251Z,15.10
2022-10-16T19:56:50.670Z,15.10
2022-10-16T19:59:20.241Z,14.91
2022-10-16T20:01:49.102Z,15.05
2022-10-16T20:04:23.297Z,14.92
2022-10-16T20:06:51.689Z,14.85
2022-10-16T20:09:19.975Z,14.34
2022-10-16T20:11:48.234Z,14.75
2022-10-16T20:14:18.508Z,14.77
2022-10-16T20:16:46.752Z,14.76
2022-10-16T20:19:15.989Z,14.40
2022-10-16T20:21:44.258Z,14.55
2022-10-16T20:24:12.517Z,14.40
2022-10-16T20:26:42.832Z,14.61
2022-10-16T20:29:11.540Z,14.49
2022-10-16T20:31:42.194Z,14.63
2022-10-16T20:34:13.342Z,14.58
2022-10-16T20:36:45.259Z,14.56
2022-10-16T20:39:14.735Z,14.57
2022-10-16T20:41:42.982Z,14.67
2022-10-16T20:44:11.239Z,14.64
2022-10-16T20:46:41.652Z,14.60
2022-10-16T20:49:27.637Z,14.57
2022-10-16T20:51:56.942Z,14.69
2022-10-16T20:54:25.162Z,14.64
2022-10-16T20:56:56.180Z,14.61
2022-10-16T20:59:24.892Z,14.57
2022-10-16T21:01:54.539Z,14.56
2022-10-16T21:04:22.858Z,14.52
2022-10-16T21:06:51.062Z,14.45
2022-10-16T21:09:19.289Z,14.48
2022-10-16T21:11:47.498Z,14.44
2022-10-16T21:14:15.669Z,14.36
2022-10-16T21:16:43.985Z,14.29
2022-10-16T21:19:19.106Z,14.29
2022-10-16T21:21:47.310Z,14.33
2022-10-16T21:24:17.857Z,14.27
2022-10-16T21:26:46.296Z,14.21
2022-10-16T21:29:14.849Z,14.21
2022-10-16T21:31:44.421Z,14.21
2022-10-16T21:34:12.763Z,13.03
2022-10-16T21:36:44.039Z,13.73
2022-10-16T21:39:14.976Z,13.39
2022-10-16T21:41:49.400Z,14.11
2022-10-16T21:44:20.087Z,13.96
2022-10-16T21:46:48.821Z,13.95
2022-10-16T21:49:19.427Z,13.63
2022-10-16T21:51:50.956Z,13.95
2022-10-16T21:54:21.532Z,13.84
2022-10-16T21:56:50.424Z,13.90
2022-10-16T21:59:18.766Z,13.81
2022-10-16T22:01:47.120Z,13.78
2022-10-16T22:04:17.499Z,13.86
2022-10-16T22:06:46.212Z,13.83
2022-10-16T22:09:17.896Z,13.72
2022-10-16T22:11:46.699Z,13.67
2022-10-16T22:14:18.504Z,13.71
2022-10-16T22:16:47.457Z,13.65
2022-10-16T22:19:18.814Z,13.22
2022-10-16T22:21:48.639Z,13.55
2022-10-16T22:24:19.066Z,13.43
2022-10-16T22:26:48.246Z,12.55
2022-10-16T22:29:17.631Z,13.35
2022-10-16T22:31:46.125Z,13.39
2022-10-16T22:34:15.627Z,13.36
2022-10-16T22:36:43.861Z,13.28
2022-10-16T22:39:12.462Z,13.22
2022-10-16T22:41:42.437Z,13.13
2022-10-16T22:44:13.795Z,13.05
2022-10-16T22:46:42.200Z,13.05
2022-10-16T22:49:10.565Z,13.02
2022-10-16T22:51:38.875Z,13.04
2022-10-16T22:54:07.114Z,13.05
2022-10-16T22:56:36.743Z,12.95
2022-10-16T22:59:06.854Z,12.70
2022-10-16T23:01:38.057Z,12.99
2022-10-16T23:04:06.565Z,12.92
2022-10-16T23:06:35.468Z,12.93
2022-10-16T23:09:04.428Z,12.81
2022-10-16T23:11:32.978Z,12.91
2022-10-16T23:14:01.309Z,12.80
2022-10-16T23:16:30.913Z,12.80
2022-10-16T23:18:59.992Z,12.71
2022-10-16T23:21:28.397Z,12.70
2022-10-16T23:23:56.948Z,12.69
2022-10-16T23:26:27.584Z,12.69
2022-10-16T23:28:58.500Z,12.61
2022-10-16T23:31:27.499Z,12.44
2022-10-16T23:33:57.990Z,12.54
2022-10-16T23:36:26.810Z,12.42
2022-10-16T23:38:55.833Z,12.45
2022-10-16T23:41:24.185Z,12.40
2022-10-16T23:43:52.958Z,12.39
2022-10-16T23:46:21.231Z,12.34
2022-10-16T23:48:49.449Z,12.20
2022-10-16T23:51:19.055Z,12.18
2022-10-16T23:53:47.372Z,12.15
2022-10-16T23:56:15.878Z,12.10
2022-10-16T23:58:44.243Z,12.11
